KDUJ/DUJ METAR and TAF weather

Enter ICAO airport designator
Station Type Date Time Source
KDUJ METAR 2018/09/20 17:53 UTC NOAA

KDUJ 201753Z AUTO SCT028 BKN035 25/18 A3017 RMK AO2 SLP207 T02500178 10250 20144 56011 $


Station Type Date Time Source
KDUJ Decoded METAR 2018/09/20 17:53 UTC NOAA

DU BOIS-JEFFERSON COUNTY, PA, United States (KDUJ) 41-11N 078-53W
Sep 20, 2018 - 01:53 PM EDT / 2018.09.20 1753 UTC
Sky conditions: mostly cloudy
Temperature: 77.0 F (25.0 C)
Dew Point: 64.0 F (17.8 C)
Relative Humidity: 64%
Pressure (altimeter): 30.17 in. Hg (1021 hPa)
Pressure tendency: 0.03 inches (1.1 hPa) lower than three hours ago
ob: KDUJ 201753Z AUTO SCT028 BKN035 25/18 A3017 RMK AO2 SLP207 T02500178 10250 20144 56011
cycle: 18

Station Type Date Time Source
KDUJ TAF 2018/09/20 18:30 UTC NOAA

TAF KDUJ 201727Z 2018/2118 VRB05KT P6SM SCT030 BKN250
FM202300 VRB05KT P6SM BKN250
FM210800 VRB03KT P6SM SCT007 BKN250
FM211600 20012G20KT P6SM SCT035 BKN250


Example: see airport list